Terminal Aerodrome Forecast
Issued by NWS

Home | Current Version | Previous Version | Text Only | Print | Product List | Glossary On
Versions: 1 2 3 4 5 6 7 8 9 10 11 12 13 14 15 16 17 18
000
FTUS43 KGRB 070500
TAFMTW
TAF
KMTW 070520Z 0706/0806 12004KT 1/2SM FG VV003
     FM071600 17013G22KT 2SM BR BKN008
     FM071900 17015G24KT P6SM SCT008 SCT150
     FM080000 18011G16KT P6SM SCT090 BKN150=

USA.gov is the U.S. government's official web portal to all federal, state and local government web resources and services.